Time;durP1;ratioP1;P1;durP2;ratioP2;P2;SDS_P1;SDS_P2;PMS_P1;PMS_P2;Temp;Humidity;BMP_temperature;BMP_pressure;BME280_temperature;BME280_humidity;BME280_pressure;Samples;Min_cycle;Max_cycle;Signal;HPM_P1;HPM_P2
2024/02/15 00:00:43;;;;;;;20.95;15.27;;;;;;;10.98;100.00;69616.91;5070394;28;20051;-62
2024/02/15 00:03:13;;;;;;;21.70;15.68;;;;;;;10.98;100.00;69611.69;5070548;28;20126;-64
2024/02/15 00:05:42;;;;;;;22.33;16.17;;;;;;;10.98;100.00;69613.72;5069852;28;20051;-64
2024/02/15 00:08:10;;;;;;;26.50;17.60;;;;;;;11.04;100.00;69623.31;5069366;28;20037;-63
2024/02/15 00:10:39;;;;;;;23.33;17.10;;;;;;;11.03;100.00;69618.97;5072820;28;20052;-64
2024/02/15 00:13:08;;;;;;;23.25;17.27;;;;;;;10.98;100.00;69611.69;5072553;28;20480;-63
2024/02/15 00:15:39;;;;;;;23.05;16.83;;;;;;;10.97;100.00;69615.72;5069845;28;20528;-64
2024/02/15 00:18:08;;;;;;;21.75;17.60;;;;;;;10.97;100.00;69615.16;5070439;28;20543;-63
2024/02/15 00:20:36;;;;;;;22.77;16.90;;;;;;;10.96;100.00;69611.97;5069811;28;20059;-63
2024/02/15 00:23:06;;;;;;;24.83;17.65;;;;;;;10.95;100.00;69605.56;5070154;28;20080;-64
2024/02/15 00:25:34;;;;;;;29.05;17.83;;;;;;;10.97;100.00;69610.50;5068625;28;20124;-64
2024/02/15 00:28:03;;;;;;;24.35;18.30;;;;;;;10.95;100.00;69613.41;5069246;28;20116;-64
2024/02/15 00:30:32;;;;;;;23.40;17.60;;;;;;;10.97;100.00;69613.13;5071845;28;20048;-63
2024/02/15 00:33:02;;;;;;;22.60;17.95;;;;;;;10.96;100.00;69613.97;5073367;28;20045;-64
2024/02/15 00:35:31;;;;;;;27.40;19.60;;;;;;;10.97;100.00;69615.72;5072992;28;20086;-63
2024/02/15 00:38:00;;;;;;;26.55;19.48;;;;;;;10.96;100.00;69611.97;5069980;28;20051;-64
2024/02/15 00:40:28;;;;;;;28.38;19.42;;;;;;;10.98;100.00;69616.31;5069131;28;20051;-63
2024/02/15 00:42:56;;;;;;;25.70;20.90;;;;;;;10.97;100.00;69615.72;5069164;28;20037;-64
2024/02/15 00:45:25;;;;;;;31.05;21.13;;;;;;;10.95;100.00;69610.78;5068751;28;20119;-64
2024/02/15 00:47:55;;;;;;;30.15;21.90;;;;;;;10.97;100.00;69613.13;5068457;28;20131;-63
2024/02/15 00:50:24;;;;;;;29.52;21.48;;;;;;;10.97;100.00;69613.13;5072649;28;20055;-63
2024/02/15 00:52:52;;;;;;;29.10;21.33;;;;;;;10.97;100.00;69612.53;5071538;28;20404;-63
2024/02/15 00:55:21;;;;;;;29.80;21.10;;;;;;;11.00;100.00;69621.25;5068758;28;20164;-63
2024/02/15 00:57:49;;;;;;;30.10;22.83;;;;;;;10.96;100.00;69611.38;5068931;28;20075;-64
2024/02/15 01:00:17;;;;;;;28.88;22.55;;;;;;;10.97;100.00;69615.16;5069725;28;20075;-63
2024/02/15 01:02:49;;;;;;;33.20;22.88;;;;;;;10.97;100.00;69613.13;5072018;28;20091;-63
2024/02/15 01:05:19;;;;;;;31.25;22.27;;;;;;;10.97;100.00;69613.13;5069246;28;20049;-64
2024/02/15 01:07:48;;;;;;;28.05;20.27;;;;;;;10.96;100.00;69614.56;5069700;28;20056;-64
2024/02/15 01:10:17;;;;;;;30.30;20.67;;;;;;;10.99;100.00;69612.28;5068487;28;20601;-63
2024/02/15 01:12:45;;;;;;;26.63;20.65;;;;;;;10.98;100.00;69613.72;5069086;28;20068;-63
2024/02/15 01:15:14;;;;;;;28.73;20.02;;;;;;;10.99;100.00;69612.28;5069360;28;20044;-64
2024/02/15 01:17:42;;;;;;;26.75;19.38;;;;;;;10.99;100.00;69614.88;5070446;28;20384;-63
2024/02/15 01:20:11;;;;;;;27.05;19.23;;;;;;;10.96;100.00;69611.97;5071022;28;20049;-63
2024/02/15 01:22:41;;;;;;;27.30;19.90;;;;;;;10.98;100.00;69616.91;5069357;28;20040;-64
2024/02/15 01:25:10;;;;;;;31.73;19.25;;;;;;;10.95;100.00;69612.84;5071575;28;20504;-63
2024/02/15 01:27:41;;;;;;;24.90;17.70;;;;;;;10.97;100.00;69604.72;5069039;28;20593;-64
2024/02/15 01:30:10;;;;;;;26.17;17.88;;;;;;;10.95;100.00;69612.84;5070037;28;20051;-64
2024/02/15 01:32:41;;;;;;;28.70;18.33;;;;;;;10.97;100.00;69613.13;5072605;28;20047;-65
2024/02/15 01:35:10;;;;;;;27.08;17.88;;;;;;;11.04;100.00;69617.53;5072580;28;20503;-63
2024/02/15 01:37:38;;;;;;;22.20;16.42;;;;;;;11.01;100.00;69619.81;5072510;28;20132;-63
2024/02/15 01:40:12;;;;;;;27.08;16.65;;;;;;;11.01;100.00;69622.44;5072453;28;20522;-63
2024/02/15 01:42:40;;;;;;;25.30;17.20;;;;;;;11.01;100.00;69619.25;5071035;28;20048;-64
2024/02/15 01:45:11;;;;;;;24.52;16.63;;;;;;;11.01;100.00;69612.00;5068855;28;20041;-63
2024/02/15 01:47:41;;;;;;;27.65;17.08;;;;;;;10.98;100.00;69616.91;5069036;28;20055;-64
2024/02/15 01:50:11;;;;;;;26.70;16.92;;;;;;;10.96;100.00;69613.97;5068560;28;20047;-63
2024/02/15 01:52:40;;;;;;;26.08;16.70;;;;;;;10.97;100.00;69613.13;5068884;28;20136;-63
2024/02/15 01:55:10;;;;;;;27.55;16.30;;;;;;;10.97;100.00;69609.94;5067494;28;20053;-63
2024/02/15 01:57:38;;;;;;;25.45;16.58;;;;;;;10.98;100.00;69614.28;5071403;28;20119;-63
2024/02/15 02:00:09;;;;;;;28.25;16.08;;;;;;;10.97;100.00;69615.16;5072788;28;20056;-64
2024/02/15 02:02:40;;;;;;;24.40;16.63;;;;;;;10.99;100.00;69609.66;5072938;28;20051;-64
2024/02/15 02:05:09;;;;;;;20.85;15.60;;;;;;;10.98;100.00;69616.91;5072264;28;20059;-64
2024/02/15 02:07:38;;;;;;;26.33;16.02;;;;;;;10.99;100.00;69617.50;5073261;28;20098;-63
2024/02/15 02:10:08;;;;;;;23.67;15.90;;;;;;;10.99;100.00;69617.50;5073688;28;20045;-64
2024/02/15 02:12:39;;;;;;;25.20;16.05;;;;;;;10.95;100.00;69613.41;5072125;28;20048;-63
2024/02/15 02:15:08;;;;;;;23.83;15.10;;;;;;;10.97;100.00;69612.53;5072391;28;20127;-63
2024/02/15 02:17:37;;;;;;;23.77;14.57;;;;;;;10.97;100.00;69612.53;5074869;28;20135;-64
2024/02/15 02:20:08;;;;;;;22.92;14.80;;;;;;;10.97;100.00;69615.16;5075418;28;20515;-64
2024/02/15 02:22:38;;;;;;;25.20;14.20;;;;;;;10.97;100.00;69610.50;5075296;28;20114;-63
2024/02/15 02:25:09;;;;;;;25.80;15.18;;;;;;;10.95;100.00;69610.78;5072198;28;20072;-63
2024/02/15 02:27:37;;;;;;;22.35;15.30;;;;;;;10.93;100.00;69608.44;5071793;28;20072;-64
2024/02/15 02:30:14;;;;;;;22.80;15.63;;;;;;;10.92;100.00;69609.31;5072473;28;20045;-63
2024/02/15 02:32:43;;;;;;;25.13;16.05;;;;;;;10.93;100.00;69607.88;5072177;28;20531;-64
2024/02/15 02:35:12;;;;;;;21.95;14.93;;;;;;;10.93;100.00;69608.44;5072084;28;20102;-49
2024/02/15 02:37:40;;;;;;;23.90;14.82;;;;;;;10.94;100.00;69611.66;5072055;28;20048;-50
2024/02/15 02:40:12;;;;;;;24.02;15.18;;;;;;;10.95;100.00;69613.41;5073641;28;20047;-52
2024/02/15 02:42:59;;;;;;;21.60;14.23;;;;;;;10.94;100.00;69607.00;5074371;28;20068;-51
2024/02/15 02:45:27;;;;;;;25.52;14.73;;;;;;;10.93;100.00;69608.44;5075038;28;20411;-53
2024/02/15 02:47:56;;;;;;;24.05;14.52;;;;;;;10.90;100.00;69604.38;5074927;28;20051;-52
2024/02/15 02:50:25;;;;;;;25.88;15.13;;;;;;;10.90;100.00;69602.34;5072359;28;20091;-52
2024/02/15 02:52:53;;;;;;;22.05;13.80;;;;;;;10.91;100.00;69606.13;5071546;28;20545;-50
2024/02/15 02:55:23;;;;;;;25.30;15.02;;;;;;;10.89;100.00;69603.78;5074403;28;20049;-54
2024/02/15 02:57:52;;;;;;;23.33;14.55;;;;;;;10.91;100.00;69603.50;5074651;28;20041;-51
2024/02/15 03:00:24;;;;;;;22.10;13.77;;;;;;;10.89;100.00;69606.38;5074684;28;20514;-49
2024/02/15 03:02:56;;;;;;;25.85;14.52;;;;;;;10.89;100.00;69603.78;5072235;28;20048;-51
2024/02/15 03:05:25;;;;;;;23.25;13.43;;;;;;;10.86;100.00;69600.28;5071193;28;20040;-51
2024/02/15 03:07:53;;;;;;;21.08;12.98;;;;;;;10.87;100.00;69600.88;5070659;28;20049;-51
2024/02/15 03:10:24;;;;;;;23.38;13.20;;;;;;;10.88;100.00;69602.03;5070603;28;20526;-51
2024/02/15 03:12:52;;;;;;;21.33;12.63;;;;;;;10.87;100.00;69603.50;5070846;28;20040;-53
2024/02/15 03:15:21;;;;;;;20.10;11.95;;;;;;;10.83;100.00;69599.97;5072876;28;20048;-53
2024/02/15 03:17:51;;;;;;;19.38;12.45;;;;;;;10.82;100.00;69598.22;5074344;28;20098;-53
2024/02/15 03:20:23;;;;;;;21.80;11.43;;;;;;;10.85;100.00;69598.53;5072707;28;20084;-51
2024/02/15 03:22:53;;;;;;;21.30;11.15;;;;;;;10.83;100.00;69599.97;5069633;28;20053;-51
2024/02/15 03:25:24;;;;;;;16.55;10.52;;;;;;;10.81;100.00;69597.06;5067935;28;20036;-51
2024/02/15 03:27:53;;;;;;;17.65;10.52;;;;;;;10.80;100.00;69593.88;5070560;28;20053;-51
2024/02/15 03:30:23;;;;;;;20.48;11.07;;;;;;;10.78;100.00;69588.34;5069783;28;20135;-52
2024/02/15 03:32:52;;;;;;;18.60;10.57;;;;;;;10.78;100.00;69590.94;5071080;28;20091;-53
2024/02/15 03:35:22;;;;;;;18.30;10.50;;;;;;;10.77;100.00;69592.38;5070753;28;20044;-52
2024/02/15 03:37:52;;;;;;;20.20;10.30;;;;;;;10.76;100.00;69588.63;5070826;28;20048;-52
2024/02/15 03:40:21;;;;;;;18.90;10.02;;;;;;;10.79;100.00;69592.13;5069280;28;20059;-51
2024/02/15 03:42:51;;;;;;;15.85;9.30;;;;;;;10.75;100.00;69585.41;5070636;28;20048;-53
2024/02/15 03:45:19;;;;;;;20.67;9.50;;;;;;;10.73;100.00;69587.72;5068958;28;20036;-63
2024/02/15 03:47:49;;;;;;;17.17;9.27;;;;;;;10.73;100.00;69577.28;5070863;28;20508;-50
2024/02/15 03:50:18;;;;;;;16.13;8.57;;;;;;;10.72;100.00;69583.97;5070433;28;20052;-52
2024/02/15 03:52:47;;;;;;;17.23;9.00;;;;;;;10.71;100.00;69585.38;5071164;28;20153;-53
2024/02/15 03:55:15;;;;;;;16.50;8.68;;;;;;;10.71;100.00;69585.38;5068700;28;20637;-50
2024/02/15 03:57:45;;;;;;;19.05;8.32;;;;;;;10.72;100.00;69583.97;5070358;28;20044;-53
2024/02/15 04:00:20;;;;;;;17.65;8.02;;;;;;;10.67;100.00;69585.94;5070065;28;20063;-51
2024/02/15 04:02:52;;;;;;;17.17;7.70;;;;;;;10.68;100.00;69574.63;5070273;28;20072;-53
2024/02/15 04:05:23;;;;;;;18.98;8.50;;;;;;;10.65;100.00;69578.97;5069623;28;20131;-50
2024/02/15 04:07:52;;;;;;;19.70;7.95;;;;;;;10.66;100.00;69580.13;5069115;28;20060;-53
2024/02/15 04:10:20;;;;;;;19.75;8.38;;;;;;;10.69;100.00;69572.59;5072398;28;20110;-50
2024/02/15 04:12:49;;;;;;;16.95;8.57;;;;;;;10.68;100.00;69584.50;5070055;28;20052;-53
2024/02/15 04:15:18;;;;;;;17.85;8.05;;;;;;;10.68;100.00;69581.91;5069938;28;20044;-53
2024/02/15 04:17:47;;;;;;;19.08;9.05;;;;;;;10.65;100.00;69579.56;5070220;28;20131;-50
2024/02/15 04:20:17;;;;;;;16.60;7.78;;;;;;;10.63;100.00;69577.22;5070083;28;20395;-50
2024/02/15 04:22:47;;;;;;;14.60;7.60;;;;;;;10.63;100.00;69574.63;5070534;28;20059;-49
2024/02/15 04:25:17;;;;;;;17.95;7.53;;;;;;;10.59;100.00;69569.94;5069315;28;20499;-51
2024/02/15 04:27:47;;;;;;;18.50;7.15;;;;;;;10.60;100.00;69570.53;5072722;28;20044;-52
2024/02/15 04:30:16;;;;;;;22.85;7.30;;;;;;;10.60;100.00;69573.72;5072633;28;20052;-53
2024/02/15 04:32:47;;;;;;;15.15;6.68;;;;;;;10.63;100.00;69572.00;5072853;28;20123;-53
2024/02/15 04:35:15;;;;;;;17.95;7.20;;;;;;;10.64;100.00;69577.81;5072795;28;20049;-50
2024/02/15 04:37:43;;;;;;;14.05;6.05;;;;;;;10.65;100.00;69579.56;5073012;28;20447;-50
2024/02/15 04:40:13;;;;;;;14.55;6.88;;;;;;;10.64;100.00;69578.38;5070674;28;20452;-49
2024/02/15 04:42:45;;;;;;;17.27;6.60;;;;;;;10.65;100.00;69579.56;5070084;28;20368;-51
2024/02/15 04:45:14;;;;;;;16.42;6.38;;;;;;;10.64;100.00;69578.38;5069180;28;20387;-53
2024/02/15 04:47:45;;;;;;;15.00;6.30;;;;;;;10.65;100.00;69579.56;5069518;28;20060;-52
2024/02/15 04:50:18;;;;;;;14.65;6.43;;;;;;;10.67;100.00;69581.28;5071864;28;20545;-51
2024/02/15 04:52:48;;;;;;;14.85;5.88;;;;;;;10.66;100.00;69580.13;5070093;28;20442;-52
2024/02/15 04:55:17;;;;;;;15.52;6.20;;;;;;;10.65;100.00;69576.94;5067904;28;20391;-53
2024/02/15 04:57:48;;;;;;;12.30;6.28;;;;;;;10.68;100.00;69584.50;5069370;28;20488;-52
2024/02/15 05:00:20;;;;;;;15.38;6.57;;;;;;;10.67;100.00;69580.72;5070087;28;20052;-50
2024/02/15 05:02:51;;;;;;;13.82;6.35;;;;;;;10.68;100.00;69577.25;5071896;28;20052;-50
2024/02/15 05:05:19;;;;;;;16.77;6.32;;;;;;;10.65;100.00;69576.94;5068988;28;20144;-52
2024/02/15 05:07:48;;;;;;;13.77;5.88;;;;;;;10.70;100.00;69581.59;5069387;28;20395;-51
2024/02/15 05:10:17;;;;;;;17.33;6.05;;;;;;;10.70;100.00;69579.56;5071921;28;20048;-51
2024/02/15 05:12:47;;;;;;;14.45;5.78;;;;;;;10.67;100.00;69580.72;5068632;28;20048;-54
2024/02/15 05:15:17;;;;;;;18.25;6.18;;;;;;;10.68;100.00;69579.88;5069403;28;20068;-54
2024/02/15 05:17:47;;;;;;;15.32;6.15;;;;;;;10.66;100.00;69577.50;5069864;28;20053;-53
2024/02/15 05:20:20;;;;;;;13.73;5.93;;;;;;;10.65;100.00;69571.72;5069323;28;20056;-52
2024/02/15 05:22:48;;;;;;;16.02;6.95;;;;;;;10.67;100.00;69578.13;5069151;28;20045;-54
2024/02/15 05:25:23;;;;;;;20.35;6.25;;;;;;;10.62;100.00;69573.44;5067700;28;20452;-52
2024/02/15 05:27:58;;;;;;;13.93;6.03;;;;;;;10.63;100.00;69577.22;5068632;28;20036;-52
2024/02/15 05:30:26;;;;;;;16.00;6.95;;;;;;;10.65;100.00;69576.94;5069285;28;20369;-53
2024/02/15 05:32:54;;;;;;;16.13;6.10;;;;;;;10.60;100.00;69570.53;5073215;28;20054;-51
2024/02/15 05:35:26;;;;;;;18.48;5.78;;;;;;;10.62;100.00;69573.44;5072946;28;20521;-52
2024/02/15 05:37:55;;;;;;;14.70;6.55;;;;;;;10.62;100.00;69573.44;5072738;28;20058;-50
2024/02/15 05:40:24;;;;;;;15.23;6.28;;;;;;;10.62;100.00;69573.44;5072731;28;20052;-52
2024/02/15 05:42:58;;;;;;;14.18;5.90;;;;;;;10.63;100.00;69574.03;5074035;28;20127;-51
2024/02/15 05:45:32;;;;;;;16.02;6.18;;;;;;;10.63;100.00;69576.63;5072513;28;20663;-50
2024/02/15 05:48:01;;;;;;;15.90;6.38;;;;;;;10.60;100.00;69571.09;5072819;28;20068;-49
2024/02/15 05:50:31;;;;;;;14.30;6.55;;;;;;;10.62;100.00;69573.44;5073147;28;20049;-53
2024/02/15 05:53:01;;;;;;;15.15;5.95;;;;;;;10.61;100.00;69577.50;5076260;28;20110;-51
2024/02/15 05:55:33;;;;;;;16.88;6.25;;;;;;;10.60;100.00;69573.72;5071089;28;20492;-50
2024/02/15 05:58:03;;;;;;;17.98;6.28;;;;;;;10.60;100.00;69571.09;5071940;28;20119;-52
2024/02/15 06:00:31;;;;;;;15.07;5.97;;;;;;;10.60;100.00;69573.72;5071264;28;20048;-53
2024/02/15 06:03:01;;;;;;;14.02;6.53;;;;;;;10.58;100.00;69568.78;5072369;28;20045;-53
2024/02/15 06:05:31;;;;;;;11.40;5.80;;;;;;;10.59;100.00;69566.75;5073212;28;20064;-51
2024/02/15 06:08:00;;;;;;;14.45;6.70;;;;;;;10.61;100.00;69574.31;5075782;28;20083;-53
2024/02/15 06:10:30;;;;;;;14.68;6.45;;;;;;;10.59;100.00;69569.34;5071775;28;20109;-52
2024/02/15 06:12:59;;;;;;;17.08;5.57;;;;;;;10.59;100.00;69572.56;5071372;28;20384;-53
2024/02/15 06:15:27;;;;;;;11.38;6.00;;;;;;;10.59;100.00;69566.75;5075027;28;20036;-52
2024/02/15 06:17:55;;;;;;;14.52;5.90;;;;;;;10.61;100.00;69574.31;5072582;28;20851;-52
2024/02/15 06:20:24;;;;;;;14.93;5.95;;;;;;;10.65;100.00;69576.38;5073463;28;20045;-52
2024/02/15 06:22:53;;;;;;;14.65;6.28;;;;;;;10.63;100.00;69574.63;5075476;28;20060;-52
2024/02/15 06:25:23;;;;;;;16.33;5.93;;;;;;;10.61;100.00;69569.66;5075280;28;20048;-51
2024/02/15 06:27:58;;;;;;;13.18;5.78;;;;;;;10.61;100.00;69574.88;5071853;28;20044;-49
2024/02/15 06:41:40;;;;;;;17.30;4.82;;;;;;;10.61;100.00;69569.09;5070604;28;20040;-51
2024/02/15 06:44:09;;;;;;;14.65;5.05;;;;;;;10.59;100.00;69572.56;5072639;28;20441;-51
2024/02/15 06:46:37;;;;;;;9.52;5.68;;;;;;;10.63;100.00;69576.63;5074173;28;20102;-52
2024/02/15 06:49:05;;;;;;;10.82;5.40;;;;;;;10.63;100.00;69577.22;5070894;28;20130;-51
2024/02/15 06:51:34;;;;;;;14.40;5.57;;;;;;;10.62;100.00;69575.47;5071479;28;20056;-50
2024/02/15 06:54:04;;;;;;;10.48;5.30;;;;;;;10.62;100.00;69573.44;5071469;28;20135;-52
2024/02/15 06:56:37;;;;;;;16.83;5.68;;;;;;;10.63;100.00;69568.81;5069890;28;20049;-53
2024/02/15 06:59:05;;;;;;;11.43;5.57;;;;;;;10.62;100.00;69575.47;5074447;28;20059;-51
2024/02/15 07:01:34;;;;;;;12.80;5.10;;;;;;;10.65;100.00;69579.56;5071625;28;20060;-52
2024/02/15 07:04:03;;;;;;;11.50;5.32;;;;;;;10.65;100.00;69578.97;5070171;28;20052;-53
2024/02/15 07:06:31;;;;;;;12.95;5.57;;;;;;;10.66;100.00;69577.50;5071102;28;20048;-52
2024/02/15 07:09:00;;;;;;;12.57;5.50;;;;;;;10.64;100.00;69578.38;5073976;28;20037;-53
2024/02/15 07:11:30;;;;;;;11.80;4.95;;;;;;;10.65;100.00;69574.34;5074405;28;20052;-49
2024/02/15 07:13:58;;;;;;;12.20;5.60;;;;;;;10.65;100.00;69579.56;5073644;28;20593;-49
2024/02/15 07:16:26;;;;;;;10.73;5.43;;;;;;;10.68;100.00;69582.47;5070942;28;20044;-52
2024/02/15 07:18:55;;;;;;;14.18;5.80;;;;;;;10.64;100.00;69575.78;5070995;28;20052;-51
2024/02/15 07:21:27;;;;;;;13.95;6.22;;;;;;;10.63;100.00;69572.00;5070813;28;20068;-63
2024/02/15 07:23:56;;;;;;;15.48;7.00;;;;;;;10.64;100.00;69578.38;5070782;28;20083;-64
2024/02/15 07:26:25;;;;;;;11.48;5.97;;;;;;;10.67;100.00;69575.50;5069261;28;20120;-64
2024/02/15 07:28:55;;;;;;;12.63;5.68;;;;;;;10.65;100.00;69576.94;5070675;28;20071;-49
2024/02/15 07:31:28;;;;;;;10.65;6.35;;;;;;;10.65;100.00;69576.38;5073144;28;20049;-51
2024/02/15 07:33:57;;;;;;;14.02;5.95;;;;;;;10.69;100.00;69580.44;5074198;28;20400;-50
2024/02/15 07:36:27;;;;;;;14.45;6.50;;;;;;;10.69;100.00;69583.03;5070610;28;20067;-53
2024/02/15 07:39:00;;;;;;;13.05;6.07;;;;;;;10.72;100.00;69581.34;5071295;28;20056;-52
2024/02/15 07:41:30;;;;;;;11.50;5.95;;;;;;;10.72;100.00;69586.56;5072561;28;20080;-49
2024/02/15 07:44:01;;;;;;;10.85;5.38;;;;;;;10.72;100.00;69589.19;5070400;28;20504;-52
2024/02/15 07:46:29;;;;;;;14.13;6.10;;;;;;;10.71;100.00;69582.78;5070367;28;20078;-51
2024/02/15 07:48:57;;;;;;;12.55;5.78;;;;;;;10.70;100.00;69586.84;5070337;28;20500;-50
2024/02/15 07:51:27;;;;;;;12.82;5.50;;;;;;;10.72;100.00;69587.13;5072065;28;20060;-50
2024/02/15 07:53:56;;;;;;;10.70;5.18;;;;;;;10.75;100.00;69582.22;5069795;28;20052;-49
2024/02/15 07:56:24;;;;;;;8.93;5.00;;;;;;;10.75;100.00;69593.25;5069665;28;20491;-50
2024/02/15 07:58:52;;;;;;;10.55;4.75;;;;;;;10.80;100.00;69593.88;5073733;28;20047;-54
2024/02/15 08:01:23;;;;;;;13.52;5.60;;;;;;;10.80;100.00;69593.88;5073126;28;20094;-53
2024/02/15 08:03:53;;;;;;;10.75;5.20;;;;;;;10.78;100.00;69596.16;5073072;28;20499;-52
2024/02/15 08:06:27;;;;;;;11.27;5.35;;;;;;;10.79;100.00;69595.31;5073603;28;20498;-54
2024/02/15 08:08:57;;;;;;;11.80;5.38;;;;;;;10.80;100.00;69593.28;5072304;28;20045;-53
2024/02/15 08:11:26;;;;;;;11.00;4.95;;;;;;;10.80;100.00;69586.03;5070353;28;20053;-50
2024/02/15 08:13:58;;;;;;;11.90;5.25;;;;;;;10.81;100.00;69594.44;5067958;28;20056;-53
2024/02/15 08:16:28;;;;;;;13.38;4.78;;;;;;;10.82;100.00;69595.63;5070123;28;20036;-52
2024/02/15 08:18:56;;;;;;;9.85;4.70;;;;;;;10.84;100.00;69597.97;5070258;28;20059;-53
2024/02/15 08:21:29;;;;;;;9.20;4.47;;;;;;;10.84;100.00;69597.97;5068397;28;20056;-51
2024/02/15 08:23:58;;;;;;;8.60;4.32;;;;;;;10.85;100.00;69601.72;5072085;28;20043;-52
2024/02/15 08:26:27;;;;;;;8.50;4.30;;;;;;;10.86;100.00;69602.91;5073079;28;20131;-53
2024/02/15 08:28:56;;;;;;;9.00;4.57;;;;;;;10.85;100.00;69601.16;5069565;28;20436;-53
2024/02/15 08:31:24;;;;;;;10.95;5.25;;;;;;;10.85;100.00;69601.16;5070982;28;20408;-55
2024/02/15 08:33:54;;;;;;;8.68;5.13;;;;;;;10.85;100.00;69599.09;5073117;28;20403;-54
2024/02/15 08:36:22;;;;;;;9.90;4.60;;;;;;;10.86;100.00;69600.28;5073339;28;20040;-51
2024/02/15 08:38:51;;;;;;;8.73;4.78;;;;;;;10.87;100.00;69606.09;5070450;28;20076;-53
2024/02/15 08:41:20;;;;;;;9.98;4.65;;;;;;;10.87;100.00;69604.06;5067120;28;20059;-51
2024/02/15 08:43:49;;;;;;;9.43;4.68;;;;;;;10.89;100.00;69603.78;5070590;28;20113;-52
2024/02/15 08:46:17;;;;;;;8.35;4.40;;;;;;;10.91;100.00;69606.13;5073002;28;20051;-51
2024/02/15 08:48:46;;;;;;;9.80;4.45;;;;;;;10.92;100.00;69615.13;5072939;28;20415;-53
2024/02/15 08:51:17;;;;;;;8.60;4.18;;;;;;;10.92;100.00;69604.69;5070128;28;20045;-50
2024/02/15 08:53:48;;;;;;;8.88;5.40;;;;;;;10.91;100.00;69606.13;5069940;28;20062;-53
2024/02/15 08:56:16;;;;;;;7.90;4.28;;;;;;;10.95;100.00;69610.78;5068175;28;20063;-54
2024/02/15 08:58:44;;;;;;;8.80;4.57;;;;;;;10.96;100.00;69611.97;5069573;28;20147;-54
2024/02/15 09:01:13;;;;;;;11.55;4.65;;;;;;;10.96;100.00;69604.13;5068666;28;20043;-52
2024/02/15 09:03:45;;;;;;;8.88;4.72;;;;;;;10.93;100.00;69605.84;5072534;28;20090;-51
2024/02/15 09:06:13;;;;;;;10.00;5.10;;;;;;;10.93;100.00;69607.88;5068307;28;20051;-52
2024/02/15 09:08:47;;;;;;;7.93;4.75;;;;;;;10.94;100.00;69604.41;5070687;28;20055;-51
2024/02/15 09:11:16;;;;;;;10.48;4.72;;;;;;;10.94;100.00;69609.63;5072844;28;20036;-52
2024/02/15 09:13:45;;;;;;;10.82;4.90;;;;;;;10.98;100.00;69622.13;5070060;28;20044;-52
2024/02/15 09:16:13;;;;;;;10.30;5.00;;;;;;;10.97;100.00;69607.91;5069473;28;20488;-53
2024/02/15 09:18:45;;;;;;;8.90;5.00;;;;;;;10.94;100.00;69609.63;5072426;28;20054;-50
2024/02/15 09:21:14;;;;;;;8.45;4.20;;;;;;;10.94;100.00;69611.66;5071941;28;20087;-50
2024/02/15 09:23:42;;;;;;;11.10;5.00;;;;;;;10.95;100.00;69608.19;5069716;28;20045;-51
2024/02/15 09:26:12;;;;;;;9.32;4.72;;;;;;;10.99;100.00;69618.06;5068160;28;20546;-52
2024/02/15 09:28:41;;;;;;;8.57;4.55;;;;;;;10.94;100.00;69611.66;5068020;28;20124;-53
2024/02/15 09:31:11;;;;;;;12.15;4.60;;;;;;;10.95;100.00;69608.19;5069343;28;20450;-51
2024/02/15 09:33:40;;;;;;;12.27;4.72;;;;;;;10.97;100.00;69613.13;5069952;28;20037;-52
2024/02/15 09:36:08;;;;;;;8.13;4.10;;;;;;;11.01;100.00;69617.22;5068819;28;20123;-53
2024/02/15 09:38:38;;;;;;;9.60;3.90;;;;;;;11.03;100.00;69621.56;5068930;28;20055;-51
2024/02/15 09:41:08;;;;;;;9.18;3.95;;;;;;;10.98;100.00;69614.28;5068462;28;20079;-64
2024/02/15 09:43:39;;;;;;;9.23;3.70;;;;;;;11.00;100.00;69616.03;5071753;28;20053;-63
2024/02/15 09:46:07;;;;;;;12.93;3.53;;;;;;;11.00;100.00;69613.44;5071232;28;20551;-63
2024/02/15 09:48:37;;;;;;;10.50;4.07;;;;;;;10.99;100.00;69615.47;5068640;28;20092;-64
2024/02/15 09:51:08;;;;;;;9.90;3.33;;;;;;;10.99;100.00;69615.47;5068722;28;20040;-62
2024/02/15 09:53:36;;;;;;;10.68;4.32;;;;;;;11.04;100.00;69620.72;5068509;28;20044;-64
2024/02/15 09:56:06;;;;;;;10.48;4.05;;;;;;;10.98;100.00;69616.31;5067119;28;20052;-63
2024/02/15 09:58:35;;;;;;;11.07;4.82;;;;;;;11.04;100.00;69620.72;5068673;28;20049;-63
2024/02/15 10:01:09;;;;;;;11.38;4.95;;;;;;;11.08;100.00;69625.38;5069399;28;20055;-63
2024/02/15 10:03:40;;;;;;;15.52;6.55;;;;;;;11.12;100.00;69632.09;5068982;28;20399;-64
2024/02/15 10:06:08;;;;;;;10.75;5.05;;;;;;;11.06;100.00;69625.66;5071546;28;20068;-64
2024/02/15 10:08:38;;;;;;;10.15;4.30;;;;;;;11.08;100.00;69619.56;5072254;28;20510;-64
2024/02/15 10:11:08;;;;;;;12.52;5.20;;;;;;;11.05;100.00;69624.50;5072111;28;20571;-63
2024/02/15 10:13:39;;;;;;;11.38;4.70;;;;;;;11.05;100.00;69624.50;5067976;28;20045;-63
2024/02/15 10:16:19;;;;;;;9.95;4.80;;;;;;;11.07;100.00;69624.22;5068711;28;20106;-64
2024/02/15 10:18:48;;;;;;;8.82;3.97;;;;;;;11.07;100.00;69621.03;5074654;28;20119;-63
2024/02/15 10:21:26;;;;;;;12.60;5.10;;;;;;;11.15;100.00;69630.34;5074380;28;20072;-63
2024/02/15 10:24:06;;;;;;;11.05;4.40;;;;;;;11.19;100.00;69637.63;5074390;28;20838;-63
2024/02/15 10:26:36;;;;;;;13.00;5.10;;;;;;;11.21;100.00;69636.78;5071081;28;20135;-64
2024/02/15 10:29:10;;;;;;;9.70;4.57;;;;;;;11.20;100.00;69641.41;5074531;28;20048;-63
2024/02/15 10:31:41;;;;;;;12.30;4.70;;;;;;;11.24;100.00;69640.28;5075180;28;20120;-64
2024/02/15 10:34:11;;;;;;;11.35;4.35;;;;;;;11.22;100.00;69643.19;5075452;28;20419;-64
2024/02/15 10:36:39;;;;;;;10.82;5.63;;;;;;;11.23;100.00;69646.97;5075446;28;20044;-63
2024/02/15 10:39:16;;;;;;;11.77;5.03;;;;;;;11.26;100.00;69648.44;5073324;28;20045;-64
2024/02/15 10:41:47;;;;;;;10.15;4.78;;;;;;;11.31;100.00;69649.03;5070575;28;20057;-64
2024/02/15 10:44:20;;;;;;;13.73;5.15;;;;;;;11.29;100.00;69651.38;5071657;28;20404;-64
2024/02/15 10:46:52;;;;;;;11.85;4.75;;;;;;;11.28;100.00;69648.16;5072193;28;20043;-64
2024/02/15 10:49:21;;;;;;;12.23;5.20;;;;;;;11.28;100.00;69647.56;5072035;28;20068;-64
2024/02/15 10:51:54;;;;;;;11.95;5.10;;;;;;;11.27;100.00;69649.59;5072167;28;20098;-64
2024/02/15 10:54:41;;;;;;;;;;;;;;;11.30;100.00;69655.72;5071557;28;20067;-64
2024/02/15 10:57:11;;;;;;;12.30;4.38;;;;;;;11.29;100.00;69649.31;5073707;28;19927;-63
2024/02/15 10:59:43;;;;;;;10.30;5.18;;;;;;;11.30;100.00;69649.91;5071588;28;20056;-64
2024/02/15 11:02:29;;;;;;;13.32;4.50;;;;;;;11.31;100.00;69653.69;5073645;28;20047;-63
2024/02/15 11:05:03;;;;;;;12.20;4.63;;;;;;;11.32;100.00;69652.25;5071133;28;20457;-64
2024/02/15 11:07:33;;;;;;;13.82;5.25;;;;;;;11.35;100.00;69655.16;5071890;28;20040;-64
2024/02/15 11:10:04;;;;;;;10.18;3.97;;;;;;;11.35;100.00;69655.75;5070620;28;20419;-64
2024/02/15 11:12:33;;;;;;;9.88;4.65;;;;;;;11.40;100.00;69658.38;5072876;28;20044;-64
2024/02/15 11:15:03;;;;;;;12.23;4.28;;;;;;;11.42;100.00;69661.31;5074721;28;20417;-64
2024/02/15 11:17:53;;;;;;;11.93;4.65;;;;;;;11.45;100.00;69669.44;5074800;28;20072;-64
2024/02/15 11:20:49;;;;;;;12.52;4.40;;;;;;;11.46;100.00;69668.59;5074518;28;20048;-64
2024/02/15 11:23:28;;;;;;;9.25;3.95;;;;;;;11.50;100.00;69673.25;5074585;28;20070;-63
2024/02/15 11:26:05;;;;;;;11.63;4.85;;;;;;;11.52;100.00;69672.41;5074547;28;20055;-64
2024/02/15 11:28:41;;;;;;;12.05;4.25;;;;;;;11.57;100.00;69683.47;5074143;28;20040;-64
2024/02/15 11:31:12;;;;;;;10.98;4.30;;;;;;;11.60;100.00;69686.97;5072369;28;20400;-63
2024/02/15 11:33:45;;;;;;;13.10;4.32;;;;;;;11.63;100.00;69690.47;5070121;28;20052;-64
2024/02/15 11:36:13;;;;;;;14.48;4.28;;;;;;;11.67;100.00;69689.34;5073278;28;20479;-63
2024/02/15 11:38:43;;;;;;;11.25;4.57;;;;;;;11.72;100.00;69697.22;5070743;28;20571;-64
2024/02/15 11:41:12;;;;;;;9.77;4.28;;;;;;;11.75;100.00;69700.72;5070778;28;20127;-64